ADDS METAR Data INFO
IDs: Format: Raw Decoded Include TAF

Data at: 1050 UTC 19 Oct 2017

PAQT 190953Z AUTO 18007KT 10SM OVC048 M12/M13 A2950 RMK AO2 SLP990 T11171128 TSNO $
PAQT 190853Z AUTO 22008KT 10SM OVC049 M11/M12 A2950 RMK AO2 SLP991 60000 T11111122 410561111 56003 TSNO $
PAQT 190753Z AUTO 24008KT 10SM OVC050 M11/M12 A2950 RMK AO2 SLP991 T11061122 TSNO $
PAQT 190653Z AUTO 25007KT 10SM OVC050 M10/M12 A2950 RMK AO2 UPE34 SLP991 P0000 T11001117 TSNO $
PAQT 190553Z AUTO 29008KT 10SM UP OVC050 M09/M11 A2951 RMK AO2 SLP993 P0000 60000 T10941111 11078 21094 51004 TSNO $
PAQT 190453Z AUTO 27008KT 10SM UP OVC050 M09/M12 A2951 RMK AO2 UPB06 SLP994 P0000 T10941122 TSNO $
PAQT 190353Z AUTO 00000KT 10SM OVC049 M09/M12 A2950 RMK AO2 UPB13E35SNE13 SLP992 P0000 T10941117 TSNO $
PAQT 190316Z AUTO 29004KT 9SM UP OVC047 M09/M11 A2950 RMK AO2 UPB13SNE13 P0000 T10891111 TSNO $
PAQT 190309Z AUTO 31005KT 2 1/2SM -SN BR BKN042 OVC060 M09/M11 A2950 RMK AO2 P0000 T10891111 TSNO $
PAQT 190253Z AUTO 32008KT 4SM -SN BR BKN043 OVC055 M09/M11 A2950 RMK AO2 UPB32E51SNB22E32B51 SLP989 P0000 60000 T10891106 53007 TSNO $
PAQT 190153Z AUTO 31011KT 10SM OVC055 M08/M12 A2949 RMK AO2 SLP986 T10831117 TSNO $
PAQT 190053Z AUTO 32010KT 8SM FEW029 BKN035 OVC060 M08/M11 A2948 RMK AO2 UPB16E18SNE16B42E52 SLP984 P0000 T10781111 TSNO $
PAQT 190031Z AUTO 32011KT 8SM SCT030 BKN041 OVC065 M08/M11 A2948 RMK AO2 UPB16E18SNE16 P0000 T10781106 TSNO $
PAQT 190016Z AUTO 32011KT 6SM UP BR BKN018 BKN034 OVC065 M08/M10 A2948 RMK AO2 UPB16SNE16 P0000 T10781100 TSNO $
PAQT 190009Z AUTO 32011G19KT 2 1/2SM -SN BR BKN018 OVC024 M08/M09 A2948 RMK AO2 VIS 1V5 P0000 T10781094 TSNO $
PAQT 182353Z AUTO 32012KT 3/4SM -SN BR BKN018 OVC029 M08/M09 A2948 RMK AO2 UPB27E36SNB01E12B36 SLP982 P0000 60001 T10781094 11061 21078 51020 TSNO $
PAQT 182341Z AUTO 31016G22KT 1 3/4SM -SN BR FEW022 BKN028 OVC060 M08/M09 A2947 RMK AO2 UPB27E36SNB01E12B36 P0000 T10781094 TSNO $
PAQT 182253Z AUTO 34015KT 10SM FEW030 OVC050 M07/M11 A2946 RMK AO2 UPB13E14SNB12E13B14E40 SLP977 P0000 T10671106 TSNO $
PAQT 182153Z AUTO 34013KT 10SM OVC036 M07/M10 A2944 RMK AO2 PK WND 35026/2102 SLP971 T10671100 PWINO FZRANO TSNO $
PAQT 182053Z AUTO 34019G29KT 3SM BR FEW024 OVC042 M07/M08 A2942 RMK AO2 PK WND 35031/2024 SLP962 60001 T10671083 51045 PWINO FZRANO TSNO $
PAQT 182044Z AUTO 34020G28KT 3SM BR BKN037 OVC047 M07/M08 A2941 RMK AO2 PK WND 35031/2024 T10671083 PWINO FZRANO TSNO $
PAQT 182034Z AUTO 34021G30KT 1 1/4SM BR BKN030 OVC038 M07/M08 A2940 RMK AO2 PK WND 35031/2024 T10671078 PWINO FZRANO TSNO $
PAQT 181953Z AUTO 35023G29KT 1/2SM FZFG FEW015 BKN021 OVC039 M07/M07 A2937 RMK AO2 PK WND 35034/1858 SNEMM SLP947 P0001 T10671072 PWINO FZRANO TSNO $
PAQT 181936Z AUTO 35020G31KT 1/2SM FZFG FEW012 OVC017 M07/M07 A2937 RMK AO2 PK WND 35034/1858 SNEMM P0001 T10671072 PWINO FZRANO TSNO $
PAQT 181911Z AUTO 35023G33KT 1/4SM +SN FZFG VV014 M07/M07 A2935 RMK AO2 PK WND 35034/1858 P0001 T10671072 TSNO
PAQT 181853Z AUTO 36025G32KT 1/4SM SN FZFG OVC021 M07/M07 A2933 RMK AO2 PK WND 36038/1800 SNE1758B14 SLP934 P0000 T10671072 TSNO
PAQT 181753Z AUTO 36024G38KT 1/4SM -SN FZFG FEW009 OVC017 M06/M07 A2928 RMK AO2 PK WND 36038/1746 UPE33SNB33 SLP916 P0000 60000 I6000 T10611067 11061 21111 53014 TSNO
PAQT 181745Z AUTO 36027G36KT 1/4SM SN FZFG FEW009 BKN015 OVC022 M06/M06 A2927 RMK AO2 PK WND 35036/1745 UPE33SNB33 P0000 T10611061 TSNO
PAQT 181731Z AUTO 36026G32KT 3/4SM UP BR SCT011 SCT018 BKN024 M06/M07 A2927 RMK AO2 PK WND 36032/1731 P0000 T10611067 TSNO
PAQT 181726Z AUTO 36019G27KT 2 1/2SM UP BR FEW011 SCT018 BKN024 M07/M08 A2927 RMK AO2 PK WND 36027/1726 P0000 T10721083 TSNO
PAQT 181701Z AUTO 36005KT 10SM UP SCT021 BKN030 M11/M12 A2926 RMK AO2 P0000 T11111117 TSNO
PAQT 181653Z AUTO 03006KT 8SM UP FEW018 BKN023 BKN030 M08/M08 A2925 RMK AO2 UPB06E30B45SNB30E45 SLP906 P0000 I1000 T10831083 TSNO
PAQT 181648Z AUTO 34007KT 7SM UP FEW018 BKN025 BKN030 M07/M08 A2925 RMK AO2 UPB06E30B45SNB30E45 P0000 I1000 TSNO
PAQT 181641Z AUTO 33007KT 2 1/2SM -SN BR FEW020 BKN025 BKN031 M08/M09 A2925 RMK AO2 UPB06E30SNB30 P0000 I1000 T10831094 TSNO
PAQT 181632Z AUTO 32008KT 1 3/4SM -SN BR FEW026 BKN030 OVC048 M11/M11 A2925 RMK AO2 UPB06E30SNB30 P0000 I1000 T11061111 TSNO
PAQT 181553Z AUTO 34006KT 10SM BKN041 M10/M11 A2924 RMK AO2 UPE11 SLP902 P0000 I1000 T11001106 TSNO
PAQT 181523Z AUTO 30006KT 7SM SCT003 BKN040 M10/M11 A2924 RMK AO2 UPE11 P0000 I1000 T11001106 TSNO
PAQT 181515Z AUTO 29004KT 2SM BR SCT004 BKN040 M10/M11 A2924 RMK AO2 UPE11 P0000 I1000 T11001106 TSNO
PAQT 181509Z AUTO 29005KT 1 3/4SM UP BR BKN004 BKN040 M09/M09 A2924 RMK AO2 P0000 I1000 T10891094 TSNO
PAQT 181453Z AUTO 29004KT 10SM UP BKN004 M07/M08 A2924 RMK AO2 UPB45 CIG 003V007 SLP900 P0000 60000 I3000 T10721083 56018 TSNO
PAQT 181353Z AUTO 23012KT 10SM BKN008 M08/M08 A2925 RMK AO2 SLP905 I1000 T10781083 TSNO
PAQT 181253Z AUTO 24013KT 10SM CLR M11/M11 A2927 RMK AO2 SLP914 I1000 T11061111 TSNO
PAQT 181153Z AUTO 23012KT 10SM BKN075 M09/M09 A2929 RMK AO2 SLP920 60000 70001 I1000 I6000 T10941094 11050 21094 58010 TSNO
PAQT 181053Z AUTO 24010KT 10SM FEW023 BKN075 M07/M08 A2930 RMK AO2 SLP924 T10721078 TSNO
PAQT 181019Z AUTO 24011KT 10SM BKN020 OVC090 M07/M07 A2931 RMK AO2 T10671072 TSNO
PAQT 180953Z AUTO 25009KT 10SM SCT004 OVC085 M06/M06 A2931 RMK AO2 SLP926 T10611061 TSNO
PAQT 180937Z AUTO 25010KT 10SM OVC004 M06/M06 A2932 RMK AO2 T10561061 TSNO
PAQT 180853Z AUTO 23010KT 10SM OVC007 M06/M06 A2932 RMK AO2 UPB0759E10SNE0759 SLP929 P0000 60000 T10561061 410501094 56006 TSNO
PAQT 180832Z AUTO 23011KT 10SM BKN008 OVC012 M06/M06 A2932 RMK AO2 UPB0759E10SNE0759 P0000 T10561061 TSNO
PAQT 180824Z AUTO 23011KT 10SM SCT008 OVC012 M06/M06 A2932 RMK AO2 UPB0759E10SNE0759 P0000 T10611061 TSNO
PAQT 180804Z AUTO 23012KT 7SM UP BKN010 BKN037 OVC055 M06/M06 A2932 RMK AO2 UPB0759SNE0759 P0000 T10561061 TSNO
PAQT 180753Z AUTO 23013KT 4SM -SN BR BKN009 OVC050 M06/M06 A2932 RMK AO2 UPB41E42SNE41B42 SLP930 P0000 T10561061 TSNO
PAQT 180726Z AUTO 23014KT 5SM -SN BR OVC009 M06/M06 A2933 RMK AO2 P0000 T10561061 TSNO
PAQT 180653Z AUTO 23014KT 3SM -SN BR BKN011 OVC032 M06/M06 A2933 RMK AO2 SLP932 P0000 T10561061 TSNO
PAQT 180639Z AUTO 23015KT 3SM -SN BR BKN011 OVC030 M06/M06 A2933 RMK AO2 P0000 T10561061 TSNO
PAQT 180624Z AUTO 22015KT 3SM -SN BR SCT011 OVC027 M05/M06 A2933 RMK AO2 P0000 T10501056 TSNO
PAQT 180553Z AUTO 21012KT 1 1/4SM -SN BR FEW013 OVC018 M06/M06 A2934 RMK AO2 SLP935 P0001 60001 T10561061 11056 21094 56013 TSNO
PAQT 180453Z AUTO 20014KT 1 1/4SM -SN BR OVC018 M06/M07 A2935 RMK AO2 SLP938 P0000 T10611067 TSNO
PAQT 180353Z AUTO 20013KT 1SM -SN BR VV015 M07/M07 A2936 RMK AO2 SLP943 P0000 T10671072 TSNO
PAQT 180253Z AUTO 20013KT 1 3/4SM -SN BR OVC028 M07/M08 A2938 RMK AO2 UPE10SNB10 SLP948 P0000 60000 T10721083 58017 TSNO
PAQT 180247Z AUTO 20013KT 1 3/4SM -SN BR OVC028 M08/M08 A2938 RMK AO2 UPE10SNB10 P0000 TSNO
PAQT 180241Z AUTO 19012KT 2SM -SN BR OVC030 M08/M08 A2938 RMK AO2 UPE10SNB10 P0000 T10781083 TSNO
PAQT 180228Z AUTO 19012KT 1 1/2SM -SN BR OVC034 M08/M08 A2938 RMK AO2 UPE10SNB10 P0000 T10781083 TSNO
PAQT 180218Z AUTO 19011KT 2SM -SN BR OVC042 M08/M08 A2939 RMK AO2 UPE10SNB10 P0000 T10781083 TSNO
PAQT 180153Z AUTO 20010KT 4SM UP BR OVC055 M08/M09 A2940 RMK AO2 SLP955 P0000 T10781089 TSNO
PAQT 180053Z AUTO 22008KT 8SM UP FEW016 BKN065 OVC120 M09/M10 A2941 RMK AO2 SLP960 P0000 T10891100 TSNO
PAQT 172353Z AUTO 24009KT 10SM UP FEW060 M09/M10 A2943 RMK AO2 SLP965 P0000 60000 T10891100 11067 21089 58004 TSNO
PAQT 172324Z AUTO 25008KT 10SM UP FEW009 FEW015 M08/M09 A2943 RMK AO2 P0000 T10831094 TSNO
PAQT 172309Z AUTO 25008KT 10SM UP FEW009 BKN014 M08/M09 A2943 RMK AO2 P0000 T10831094 TSNO
PAQT 172253Z AUTO 25007KT 8SM UP FEW010 BKN014 BKN070 M08/M09 A2943 RMK AO2 UPE2154B32SNB2154E32 SLP967 P0000 T10831094 TSNO